Terminal Aerodrome Forecast
Issued by NWS

Home | Current Version | Previous Version | Text Only | Print | Product List | Glossary On
Versions: 1 2 3 4 5 6 7 8 9 10 11 12 13 14 15 16 17
883
FTUS43 KGRB 251729
TAFCWA
TAF
KCWA 251729Z 2518/2618 08013G20KT P6SM OVC012
     FM252300 08011G20KT P6SM VCSH OVC012
     FM260100 08010KT 5SM -RA BR OVC008
     FM261000 08007KT 2SM -RA BR OVC003=

USA.gov is the U.S. government's official web portal to all federal, state and local government web resources and services.